AQQ10 IFIS: Internet Flight Information System
logo dgac
Martes 27 de Febrero del 2024
Buscar por aerodromo o helipuerto
Ingrese nombre de aeródromo, localidad o designador OACI:
METAR del 27-02-2024 a las 23:00 UTC
Para mayor información visite www.meteochile.gob.cl
METAR SCCF 272300Z 27021KT CAVOK 22/M03 Q1024
Viento: dirección 270 grados, velocidad 21 nudos
Visibilidad: 10 km o más,
    sin nubes bajo los 5.000 pies o bajo del MSA (Mínimo de Seguridad del Aeródromo),
    sin cumulonimbus, y sin fenómenos de tiempo significativo en el aeródromo o alrededores
Temperatura: 22 °C
Rocío: -3 °C
Humedad_relativa: 19%
Presión: 1024 hPa
METAR del 27-02-2024 a las 22:00 UTC
Para mayor información visite www.meteochile.gob.cl
METAR SCCF 272200Z 29027KT CAVOK 24/M04 Q1023
Viento: dirección 290 grados, velocidad 27 nudos
Visibilidad: 10 km o más,
    sin nubes bajo los 5.000 pies o bajo del MSA (Mínimo de Seguridad del Aeródromo),
    sin cumulonimbus, y sin fenómenos de tiempo significativo en el aeródromo o alrededores
Temperatura: 24 °C
Rocío: -4 °C
Humedad_relativa: 15%
Presión: 1023 hPa
METAR del 27-02-2024 a las 21:00 UTC
Para mayor información visite www.meteochile.gob.cl
METAR SCCF 272100Z 27024KT CAVOK 26/M08 Q1023
Viento: dirección 270 grados, velocidad 24 nudos
Visibilidad: 10 km o más,
    sin nubes bajo los 5.000 pies o bajo del MSA (Mínimo de Seguridad del Aeródromo),
    sin cumulonimbus, y sin fenómenos de tiempo significativo en el aeródromo o alrededores
Temperatura: 26 °C
Rocío: -8 °C
Humedad_relativa: 10%
Presión: 1023 hPa
METAR del 27-02-2024 a las 20:00 UTC
Para mayor información visite www.meteochile.gob.cl
METAR SCCF 272000Z 28024KT CAVOK 26/M02 Q1023
Viento: dirección 280 grados, velocidad 24 nudos
Visibilidad: 10 km o más,
    sin nubes bajo los 5.000 pies o bajo del MSA (Mínimo de Seguridad del Aeródromo),
    sin cumulonimbus, y sin fenómenos de tiempo significativo en el aeródromo o alrededores
Temperatura: 26 °C
Rocío: -2 °C
Humedad_relativa: 16%
Presión: 1023 hPa
METAR del 27-02-2024 a las 19:00 UTC
Para mayor información visite www.meteochile.gob.cl
METAR SCCF 271900Z 28026KT CAVOK 25/01 Q1023
Viento: dirección 280 grados, velocidad 26 nudos
Visibilidad: 10 km o más,
    sin nubes bajo los 5.000 pies o bajo del MSA (Mínimo de Seguridad del Aeródromo),
    sin cumulonimbus, y sin fenómenos de tiempo significativo en el aeródromo o alrededores
Temperatura: 25 °C
Rocío: 1 °C
Humedad_relativa: 21%
Presión: 1023 hPa
METAR del 27-02-2024 a las 18:00 UTC
Para mayor información visite www.meteochile.gob.cl
METAR SCCF 271800Z 28025G35KT CAVOK 25/02 Q1023
Viento: dirección 280 grados, velocidad 25 nudos, con ráfagas de velocidad máxima de 35Nudos
Visibilidad: 10 km o más,
    sin nubes bajo los 5.000 pies o bajo del MSA (Mínimo de Seguridad del Aeródromo),
    sin cumulonimbus, y sin fenómenos de tiempo significativo en el aeródromo o alrededores
Temperatura: 25 °C
Rocío: 2 °C
Humedad_relativa: 22%
Presión: 1023 hPa
METAR del 27-02-2024 a las 17:00 UTC
Para mayor información visite www.meteochile.gob.cl
METAR SCCF 271700Z 28024KT CAVOK 24/02 Q1024
Viento: dirección 280 grados, velocidad 24 nudos
Visibilidad: 10 km o más,
    sin nubes bajo los 5.000 pies o bajo del MSA (Mínimo de Seguridad del Aeródromo),
    sin cumulonimbus, y sin fenómenos de tiempo significativo en el aeródromo o alrededores
Temperatura: 24 °C
Rocío: 2 °C
Humedad_relativa: 24%
Presión: 1024 hPa
METAR del 27-02-2024 a las 16:00 UTC
Para mayor información visite www.meteochile.gob.cl
METAR SCCF 271600Z 28017KT CAVOK 24/M02 Q1025
Viento: dirección 280 grados, velocidad 17 nudos
Visibilidad: 10 km o más,
    sin nubes bajo los 5.000 pies o bajo del MSA (Mínimo de Seguridad del Aeródromo),
    sin cumulonimbus, y sin fenómenos de tiempo significativo en el aeródromo o alrededores
Temperatura: 24 °C
Rocío: -2 °C
Humedad_relativa: 18%
Presión: 1025 hPa
METAR del 27-02-2024 a las 15:00 UTC
Para mayor información visite www.meteochile.gob.cl
METAR SCCF 271500Z 28007KT 170V330 CAVOK 23/M04 Q1025
Viento: dirección 280 grados, velocidad 7 nudos
Viento con dirección variable entre 170 y 330 grados
Visibilidad: 10 km o más,
    sin nubes bajo los 5.000 pies o bajo del MSA (Mínimo de Seguridad del Aeródromo),
    sin cumulonimbus, y sin fenómenos de tiempo significativo en el aeródromo o alrededores
Temperatura: 23 °C
Rocío: -4 °C
Humedad_relativa: 16%
Presión: 1025 hPa
METAR del 27-02-2024 a las 14:00 UTC
Para mayor información visite www.meteochile.gob.cl
METAR SCCF 271400Z 08008KT CAVOK 21/M03 Q1025
Viento: dirección 080 grados, velocidad 8 nudos
Visibilidad: 10 km o más,
    sin nubes bajo los 5.000 pies o bajo del MSA (Mínimo de Seguridad del Aeródromo),
    sin cumulonimbus, y sin fenómenos de tiempo significativo en el aeródromo o alrededores
Temperatura: 21 °C
Rocío: -3 °C
Humedad_relativa: 20%
Presión: 1025 hPa